Buoy 56916

sailwx.info

Track history (hours):
 
Tides and Currents Weather Stations Pressure Air Temp Water Temp Dewpoint Dewpoint Depression Visibility Wind Speed Wind Dir Waves Ship Positions

Drifting buoy 56916

Last reported at 2017-May-24 20:00 UTC. Time now 2017-May-24 21:41 UTC.
Position S 44°19' E 174°24'.

Barometer 1021.1 mb
Water temperature 10.6 ° C

Date/timePositionNaut miles runAvg speedWind from/ knotsBaromVisibWave heightAir tempDewpointWater temp
2017-May-24 20:00S 44°19' E 174°24'0 0.4 1021.1 10.6
2017-May-24 19:00S 44°19' E 174°25'0 0.4 1020.8 10.6
2017-May-24 18:00S 44°19' E 174°25'1 0.6 1020.6 10.6
2017-May-24 17:00S 44°19' E 174°25'0 0.0 1020.7 10.6
2017-May-24 15:00S 44°19' E 174°25'1 0.4 1021.1 10.6
2017-May-24 13:00S 44°20' E 174°25'1 0.6 1021.4 10.6
2017-May-24 11:00S 44°21' E 174°24'0 0.2 1021.8 10.7
2017-May-24 09:00S 44°21' E 174°23'0 0.4 1022.1 10.7
2017-May-24 08:00S 44°21' E 174°23'0 0.0 1021.8 10.7
2017-May-24 07:00S 44°21' E 174°23'0 0.4 1021.3 10.7
2017-May-24 06:00S 44°21' E 174°22'1 0.7 1020.6 10.7
2017-May-24 04:00S 44°22' E 174°21'2 0.4 1020.0 10.7
2017-May-23 22:00S 44°22' E 174°18'1 0.4 1020.1 10.6
2017-May-23 20:00S 44°23' E 174°17'1 1.3 1019.3 10.4
2017-May-23 19:00S 44°22' E 174°18'1 0.6 1018.7 10.4
2017-May-23 18:00S 44°22' E 174°18'0 0.0 1018.3 10.4
2017-May-23 17:00S 44°22' E 174°18'0 0.2 1017.9 10.4
2017-May-23 15:00S 44°22' E 174°17'1 1.5 1017.4 10.4
2017-May-23 14:00S 44°23' E 174°16'0 0.1 1017.0 10.4
2017-May-23 11:00S 44°23' E 174°17'1 0.6 1015.5 10.3
2017-May-23 10:00S 44°23' E 174°17'0 0.4 1014.6 10.3
2017-May-23 09:00S 44°23' E 174°16'0 0.0 1013.8 10.4
2017-May-23 08:00S 44°23' E 174°16'0 0.2 1013.2 10.4
2017-May-23 06:00S 44°23' E 174°16'0 0.0 1011.9 10.4
2017-May-23 05:00S 44°23' E 174°16'1 0.9 1011.4 10.4
2017-May-23 04:00S 44°23' E 174°14'1 0.9 1010.3 10.4
2017-May-23 03:00S 44°23' E 174°13'0 0.0 1010.0 10.4
2017-May-23 02:00S 44°23' E 174°13'2 1.8 1009.8 10.4
2017-May-23 01:00S 44°22' E 174°11'1 0.5 1010.2 10.4
2017-May-22 22:00S 44°21' E 174°10'1 0.6 1012.1 10.4
2017-May-22 21:00S 44°20' E 174°10'0 0.0 1012.9 10.4
2017-May-22 20:00S 44°20' E 174°10'0 0.4 1013.1 10.4
2017-May-22 19:00S 44°20' E 174°09'1 0.7 1013.1 10.4
2017-May-22 18:00S 44°20' E 174°08'1 0.5 1013.5 10.4
2017-May-22 16:00S 44°19' E 174°07'1 1.5 1015.5 10.4
2017-May-22 15:00S 44°18' E 174°06'0 0.0 1016.5 10.4
2017-May-22 14:00S 44°18' E 174°06'1 0.4 1017.3 10.4
2017-May-22 12:00S 44°17' E 174°05'0 0.0 1019.6 10.4
2017-May-22 11:00S 44°17' E 174°05'0 0.4 1020.4 10.4
2017-May-22 10:00S 44°17' E 174°05'1 0.6 1021.6 10.4
2017-May-22 09:00S 44°17' E 174°05'1 0.3 1022.3 10.4
2017-May-22 07:00S 44°16' E 174°05'1 0.6 1023.5 10.4
2017-May-22 06:00S 44°16' E 174°05'0 0.0 1024.3 10.4
2017-May-22 05:00S 44°16' E 174°05'0 0.0 1024.5 10.4
2017-May-22 04:00S 44°16' E 174°05'1 0.9 1025.0 10.5
2017-May-22 03:00S 44°16' E 174°04'0 0.0 1025.6 10.5
2017-May-22 02:00S 44°16' E 174°04'2 0.3 1026.0 10.6
2017-May-21 21:00S 44°16' E 174°01'1 0.5 1028.8 10.4
2017-May-21 19:00S 44°15' E 174°00'0 0.4 1028.3 10.3
2017-May-21 18:00S 44°15' E 173°59'1 0.4 1028.0 10.4
2017-May-21 16:00S 44°15' E 173°58'1 1.3 1028.2 10.3
2017-May-21 15:00S 44°15' E 173°56'0 0.0 1028.5 10.4
2017-May-21 14:00S 44°15' E 173°56'2 0.8 1028.5 10.4
2017-May-21 11:00S 44°17' E 173°54'0 0.0 1028.3 10.4
2017-May-21 10:00S 44°17' E 173°54'1 1.0 1028.3 10.3
2017-May-21 09:00S 44°17' E 173°53'1 1.0 1027.9 10.3
2017-May-21 08:00S 44°18' E 173°52'1 0.7 1027.6 10.3
2017-May-21 07:00S 44°19' E 173°51'1 0.5 1027.0 10.3
2017-May-21 05:00S 44°19' E 173°50'1 0.7 1025.8 10.4
2017-May-21 04:00S 44°20' E 173°49'1 0.7 1025.2 10.4
2017-May-21 03:00S 44°20' E 173°49'0 0.0 1024.9 10.4
2017-May-21 02:00S 44°20' E 173°49'5 0.9 1024.4 10.4
2017-May-20 21:00S 44°25' E 173°46'1 1.3 1022.8 10.5
2017-May-20 20:00S 44°26' E 173°45'1 0.7 1022.0 10.4
2017-May-20 19:00S 44°26' E 173°44'1 0.6 1021.0 10.4
2017-May-20 18:00S 44°27' E 173°44'1 1.3 1020.2 10.4
2017-May-20 17:00S 44°28' E 173°44'0 0.0 1019.3 10.4
2017-May-20 16:00S 44°28' E 173°44'2 2.2 1018.6 10.5
2017-May-20 15:00S 44°30' E 173°42'0 0.0 1017.5 10.5
2017-May-20 14:00S 44°30' E 173°42'5 2.3 1016.9 10.5
2017-May-20 12:00S 44°34' E 173°40'0 0.0 1014.9 10.5
2017-May-20 11:00S 44°34' E 173°40'0 0.0 1013.7 10.4
2017-May-20 10:00S 44°34' E 173°40'1 0.6 1012.6 10.3
2017-May-20 08:00S 44°35' E 173°39'1 1.3 1010.4 10.5
2017-May-20 07:00S 44°37' E 173°38'1 0.6 1009.6 10.6
2017-May-20 06:00S 44°37' E 173°38'1 1.3 1008.4 10.6
2017-May-20 05:00S 44°38' E 173°38'1 0.7 1007.6 10.7
2017-May-20 04:00S 44°39' E 173°38'8 8.3 1006.8 10.5
2017-May-20 03:00S 44°44' E 173°29'0 0.0 1005.9 10.5
2017-May-19 23:00S 44°44' E 173°29'0 0.0 1003.4 10.5
2017-May-19 22:00S 44°44' E 173°29'3 3.0 1003.0 10.5
2017-May-19 21:00S 44°44' E 173°25'0 0.0 1003.2 10.4
2017-May-19 20:00S 44°44' E 173°25'2 1.7 1002.2 10.3
2017-May-19 19:00S 44°44' E 173°22'1 0.9 1001.9 10.3
2017-May-19 18:00S 44°44' E 173°21'1 0.9 1001.9 10.2
2017-May-19 17:00S 44°44' E 173°20'0 0.0 1001.8 10.2
2017-May-19 16:00S 44°44' E 173°20'2 0.9 1002.2 10.2
2017-May-19 14:00S 44°45' E 173°17'3 2.8 1002.0 10.2
2017-May-19 13:00S 44°47' E 173°14'0 0.0 1002.1 10.2
2017-May-19 12:00S 44°47' E 173°14'1 0.7 1001.0 10.2
2017-May-19 10:00S 44°48' E 173°13'1 1.0 1000.3 10.2
2017-May-19 09:00S 44°49' E 173°12'0 0.0 1000.4 10.2
2017-May-19 08:00S 44°49' E 173°12'2 2.5 999.0 10.2
2017-May-19 07:00S 44°50' E 173°10'1 0.7 998.8 10.2
2017-May-19 06:00S 44°51' E 173°09'0 0.4 997.7 10.2
2017-May-19 05:00S 44°51' E 173°08'1 1.0 995.1 10.2
2017-May-19 04:00S 44°50' E 173°07'0 0.0 996.2 10.3
2017-May-19 03:00S 44°50' E 173°07'3 0.6 997.4 10.3
2017-May-18 22:00S 44°52' E 173°03'2 1.0 1004.9 10.3
2017-May-18 20:00S 44°53' E 173°01'1 1.4 1005.1 10.2
2017-May-18 19:00S 44°53' E 172°59'0 0.4 1004.8 10.2
2017-May-18 18:00S 44°53' E 172°58'3 1.4 1004.8 10.3
2017-May-18 16:00S 44°56' E 172°56'0 0.0 1005.0 10.2
2017-May-18 15:00S 44°56' E 172°56'3 3.2 1005.5 10.2
2017-May-18 14:00S 44°58' E 172°53'0 0.0 1005.6 10.2
2017-May-18 13:00S 44°58' E 172°53'3 1.6 1005.1 10.2
2017-May-18 11:00S 45°00' E 172°50'2 1.7 1004.0 10.3
2017-May-18 10:00S 45°01' E 172°48'2 1.7 1003.4 10.3
2017-May-18 09:00S 45°02' E 172°46'2 1.7 1003.5 10.3
2017-May-18 08:00S 45°04' E 172°44'1 0.7 1003.5 10.3
2017-May-18 07:00S 45°03' E 172°44'0 0.0 999.5 10.3
2017-May-18 06:00S 45°03' E 172°44'0 0.4 1000.3 10.3
2017-May-18 05:00S 45°03' E 172°43'0 0.4 1001.5 10.3
2017-May-18 04:00S 45°03' E 172°43'0 0.0 1003.2 10.3
2017-May-18 03:00S 45°03' E 172°43'3 0.6 1004.2 10.4
2017-May-17 22:00S 45°06' E 172°41'1 0.6 1007.8 10.4
2017-May-17 21:00S 45°07' E 172°41'1 1.3 1007.5 10.5
2017-May-17 20:00S 45°08' E 172°41'1 0.7 1007.0 10.6
2017-May-17 19:00S 45°08' E 172°40'1 1.2 1006.3 10.8
2017-May-17 18:00S 45°10' E 172°40'1 0.6 1005.9 10.9
2017-May-17 17:00S 45°10' E 172°40'1 0.7 1005.4 10.9
2017-May-17 16:00S 45°11' E 172°41'1 1.4 1005.2 10.9
2017-May-17 15:00S 45°10' E 172°39'0 0.0 1005.5 10.9
2017-May-17 14:00S 45°10' E 172°39'0 0.0 1006.0 11.0
2017-May-17 13:00S 45°10' E 172°39'1 0.7 1006.7 11.0
2017-May-17 12:00S 45°11' E 172°38'0 0.0 1007.0 11.0
2017-May-17 11:00S 45°11' E 172°38'0 0.0 1007.3 11.0
2017-May-17 10:00S 45°11' E 172°38'1 0.7 1007.0 11.0
2017-May-17 08:00S 45°12' E 172°37'0 0.0 1006.4 11.0
2017-May-17 07:00S 45°12' E 172°37'1 0.6 1006.1 11.0
2017-May-17 06:00S 45°13' E 172°37'1 0.6 1006.1 11.0
2017-May-17 05:00S 45°13' E 172°37'0 0.4 1006.5 11.0
2017-May-17 04:00S 45°13' E 172°37'0 0.0 1006.9 11.0
2017-May-17 03:00S 45°13' E 172°37'2 0.4 1007.4 11.0
2017-May-16 23:00S 45°14' E 172°34'1 0.3 1010.8 11.0
2017-May-16 21:00S 45°14' E 172°34'1 0.7 1011.6 11.0
2017-May-16 20:00S 45°14' E 172°34'0 0.4 1012.5 11.0
2017-May-16 19:00S 45°14' E 172°33'0 0.0 1011.8 10.9
2017-May-16 17:00S 45°14' E 172°33'0 0.0 1013.5 10.9
2017-May-16 15:00S 45°14' E 172°33'1 0.6 1015.1 11.0
2017-May-16 14:00S 45°13' E 172°33'0 0.0 1015.9 11.0
2017-May-16 13:00S 45°13' E 172°33'1 0.4 1017.1 11.0
2017-May-16 11:00S 45°14' E 172°32'0 0.4 1018.2 11.0
2017-May-16 10:00S 45°14' E 172°33'0 0.4 1019.3 11.0
2017-May-16 09:00S 45°14' E 172°32'0 0.0 1019.8 10.9
2017-May-16 08:00S 45°14' E 172°32'1 0.7 1019.9 10.8
2017-May-16 07:00S 45°14' E 172°32'1 0.3 1020.1 10.8
2017-May-16 05:00S 45°15' E 172°32'2 1.7 1020.8 10.8
2017-May-16 04:00S 45°15' E 172°29'1 1.3 1021.2 10.7
2017-May-16 03:00S 45°15' E 172°31'1 0.3 1021.4 10.8
2017-May-15 22:00S 45°16' E 172°29'1 1.0 1023.7 10.8
2017-May-15 21:00S 45°16' E 172°28'0 0.0 1023.5 10.8
2017-May-15 20:00S 45°16' E 172°28'0 0.0 1023.2 10.8
2017-May-15 19:00S 45°16' E 172°28'1 1.0 1023.0 10.8
2017-May-15 18:00S 45°17' E 172°27'1 0.7 1023.1 10.8
2017-May-15 17:00S 45°17' E 172°26'0 0.0 1022.9 10.8
2017-May-15 15:00S 45°17' E 172°26'1 1.3 1022.6 10.8
2017-May-15 14:00S 45°17' E 172°25'1 0.7 1023.1 10.8
2017-May-15 13:00S 45°18' E 172°24'1 0.7 1023.5 10.8
2017-May-15 12:00S 45°19' E 172°23'0 0.0 1023.3 10.7
2017-May-15 11:00S 45°19' E 172°23'0 0.0 1023.4 10.7
2017-May-15 10:00S 45°19' E 172°23'0 0.0 1023.3 10.7
2017-May-15 09:00S 45°19' E 172°23'2 0.6 1023.1 10.6
2017-May-15 05:00S 45°20' E 172°22'2 1.8 1022.6 10.6
2017-May-15 04:00S 45°21' E 172°19'0 0.0 1022.9 10.7
2017-May-15 03:00S 45°21' E 172°19'2 0.5 1022.6 10.7
2017-May-14 23:00S 45°22' E 172°16'0 0.0 1024.6 10.5
2017-May-14 22:00S 45°22' E 172°16'1 0.7 1024.7 10.5
2017-May-14 20:00S 45°23' E 172°15'   1024.2 10.4
Track history (hours):
 
Tides and Currents Weather Stations Pressure Air Temp Water Temp Dewpoint Dewpoint Depression Visibility Wind Speed Wind Dir Waves Ship Positions

Drifting buoy 56916

Last reported at 2017-May-24 20:00 UTC. Time now 2017-May-24 21:41 UTC.
Position S 44°19' E 174°24'.

Barometer 1021.1 mb
Water temperature 10.6 ° C

Date/timePositionNaut miles runAvg speedWind from/ knotsBaromVisibWave heightAir tempDewpointWater temp
2017-May-24 20:00S 44°19' E 174°24'0 0.4 1021.1 10.6
2017-May-24 19:00S 44°19' E 174°25'0 0.4 1020.8 10.6
2017-May-24 18:00S 44°19' E 174°25'1 0.6 1020.6 10.6
2017-May-24 17:00S 44°19' E 174°25'0 0.0 1020.7 10.6
2017-May-24 15:00S 44°19' E 174°25'1 0.4 1021.1 10.6
2017-May-24 13:00S 44°20' E 174°25'1 0.6 1021.4 10.6
2017-May-24 11:00S 44°21' E 174°24'0 0.2 1021.8 10.7
2017-May-24 09:00S 44°21' E 174°23'0 0.4 1022.1 10.7
2017-May-24 08:00S 44°21' E 174°23'0 0.0 1021.8 10.7
2017-May-24 07:00S 44°21' E 174°23'0 0.4 1021.3 10.7
2017-May-24 06:00S 44°21' E 174°22'1 0.7 1020.6 10.7
2017-May-24 04:00S 44°22' E 174°21'2 0.4 1020.0 10.7
2017-May-23 22:00S 44°22' E 174°18'1 0.4 1020.1 10.6
2017-May-23 20:00S 44°23' E 174°17'1 1.3 1019.3 10.4
2017-May-23 19:00S 44°22' E 174°18'1 0.6 1018.7 10.4
2017-May-23 18:00S 44°22' E 174°18'0 0.0 1018.3 10.4
2017-May-23 17:00S 44°22' E 174°18'0 0.2 1017.9 10.4
2017-May-23 15:00S 44°22' E 174°17'1 1.5 1017.4 10.4
2017-May-23 14:00S 44°23' E 174°16'0 0.1 1017.0 10.4
2017-May-23 11:00S 44°23' E 174°17'1 0.6 1015.5 10.3
2017-May-23 10:00S 44°23' E 174°17'0 0.4 1014.6 10.3
2017-May-23 09:00S 44°23' E 174°16'0 0.0 1013.8 10.4
2017-May-23 08:00S 44°23' E 174°16'0 0.2 1013.2 10.4
2017-May-23 06:00S 44°23' E 174°16'0 0.0 1011.9 10.4
2017-May-23 05:00S 44°23' E 174°16'1 0.9 1011.4 10.4
2017-May-23 04:00S 44°23' E 174°14'1 0.9 1010.3 10.4
2017-May-23 03:00S 44°23' E 174°13'0 0.0 1010.0 10.4
2017-May-23 02:00S 44°23' E 174°13'2 1.8 1009.8 10.4
2017-May-23 01:00S 44°22' E 174°11'1 0.5 1010.2 10.4
2017-May-22 22:00S 44°21' E 174°10'1 0.6 1012.1 10.4
2017-May-22 21:00S 44°20' E 174°10'0 0.0 1012.9 10.4
2017-May-22 20:00S 44°20' E 174°10'0 0.4 1013.1 10.4
2017-May-22 19:00S 44°20' E 174°09'1 0.7 1013.1 10.4
2017-May-22 18:00S 44°20' E 174°08'1 0.5 1013.5 10.4
2017-May-22 16:00S 44°19' E 174°07'1 1.5 1015.5 10.4
2017-May-22 15:00S 44°18' E 174°06'0 0.0 1016.5 10.4
2017-May-22 14:00S 44°18' E 174°06'1 0.4 1017.3 10.4
2017-May-22 12:00S 44°17' E 174°05'0 0.0 1019.6 10.4
2017-May-22 11:00S 44°17' E 174°05'0 0.4 1020.4 10.4
2017-May-22 10:00S 44°17' E 174°05'1 0.6 1021.6 10.4
2017-May-22 09:00S 44°17' E 174°05'1 0.3 1022.3 10.4
2017-May-22 07:00S 44°16' E 174°05'1 0.6 1023.5 10.4
2017-May-22 06:00S 44°16' E 174°05'0 0.0 1024.3 10.4
2017-May-22 05:00S 44°16' E 174°05'0 0.0 1024.5 10.4
2017-May-22 04:00S 44°16' E 174°05'1 0.9 1025.0 10.5
2017-May-22 03:00S 44°16' E 174°04'0 0.0 1025.6 10.5
2017-May-22 02:00S 44°16' E 174°04'2 0.3 1026.0 10.6
2017-May-21 21:00S 44°16' E 174°01'1 0.5 1028.8 10.4
2017-May-21 19:00S 44°15' E 174°00'0 0.4 1028.3 10.3
2017-May-21 18:00S 44°15' E 173°59'1 0.4 1028.0 10.4
2017-May-21 16:00S 44°15' E 173°58'1 1.3 1028.2 10.3
2017-May-21 15:00S 44°15' E 173°56'0 0.0 1028.5 10.4
2017-May-21 14:00S 44°15' E 173°56'2 0.8 1028.5 10.4
2017-May-21 11:00S 44°17' E 173°54'0 0.0 1028.3 10.4
2017-May-21 10:00S 44°17' E 173°54'1 1.0 1028.3 10.3
2017-May-21 09:00S 44°17' E 173°53'1 1.0 1027.9 10.3
2017-May-21 08:00S 44°18' E 173°52'1 0.7 1027.6 10.3
2017-May-21 07:00S 44°19' E 173°51'1 0.5 1027.0 10.3
2017-May-21 05:00S 44°19' E 173°50'1 0.7 1025.8 10.4
2017-May-21 04:00S 44°20' E 173°49'1 0.7 1025.2 10.4
2017-May-21 03:00S 44°20' E 173°49'0 0.0 1024.9 10.4
2017-May-21 02:00S 44°20' E 173°49'5 0.9 1024.4 10.4
2017-May-20 21:00S 44°25' E 173°46'1 1.3 1022.8 10.5
2017-May-20 20:00S 44°26' E 173°45'1 0.7 1022.0 10.4
2017-May-20 19:00S 44°26' E 173°44'1 0.6 1021.0 10.4
2017-May-20 18:00S 44°27' E 173°44'1 1.3 1020.2 10.4
2017-May-20 17:00S 44°28' E 173°44'0 0.0 1019.3 10.4
2017-May-20 16:00S 44°28' E 173°44'2 2.2 1018.6 10.5
2017-May-20 15:00S 44°30' E 173°42'0 0.0 1017.5 10.5
2017-May-20 14:00S 44°30' E 173°42'5 2.3 1016.9 10.5
2017-May-20 12:00S 44°34' E 173°40'0 0.0 1014.9 10.5
2017-May-20 11:00S 44°34' E 173°40'0 0.0 1013.7 10.4
2017-May-20 10:00S 44°34' E 173°40'1 0.6 1012.6 10.3
2017-May-20 08:00S 44°35' E 173°39'1 1.3 1010.4 10.5
2017-May-20 07:00S 44°37' E 173°38'1 0.6 1009.6 10.6
2017-May-20 06:00S 44°37' E 173°38'1 1.3 1008.4 10.6
2017-May-20 05:00S 44°38' E 173°38'1 0.7 1007.6 10.7
2017-May-20 04:00S 44°39' E 173°38'8 8.3 1006.8 10.5
2017-May-20 03:00S 44°44' E 173°29'0 0.0 1005.9 10.5
2017-May-19 23:00S 44°44' E 173°29'0 0.0 1003.4 10.5
2017-May-19 22:00S 44°44' E 173°29'3 3.0 1003.0 10.5
2017-May-19 21:00S 44°44' E 173°25'0 0.0 1003.2 10.4
2017-May-19 20:00S 44°44' E 173°25'2 1.7 1002.2 10.3
2017-May-19 19:00S 44°44' E 173°22'1 0.9 1001.9 10.3
2017-May-19 18:00S 44°44' E 173°21'1 0.9 1001.9 10.2
2017-May-19 17:00S 44°44' E 173°20'0 0.0 1001.8 10.2
2017-May-19 16:00S 44°44' E 173°20'2 0.9 1002.2 10.2
2017-May-19 14:00S 44°45' E 173°17'3 2.8 1002.0 10.2
2017-May-19 13:00S 44°47' E 173°14'0 0.0 1002.1 10.2
2017-May-19 12:00S 44°47' E 173°14'1 0.7 1001.0 10.2
2017-May-19 10:00S 44°48' E 173°13'1 1.0 1000.3 10.2
2017-May-19 09:00S 44°49' E 173°12'0 0.0 1000.4 10.2
2017-May-19 08:00S 44°49' E 173°12'2 2.5 999.0 10.2
2017-May-19 07:00S 44°50' E 173°10'1 0.7 998.8 10.2
2017-May-19 06:00S 44°51' E 173°09'0 0.4 997.7 10.2
2017-May-19 05:00S 44°51' E 173°08'1 1.0 995.1 10.2
2017-May-19 04:00S 44°50' E 173°07'0 0.0 996.2 10.3
2017-May-19 03:00S 44°50' E 173°07'3 0.6 997.4 10.3
2017-May-18 22:00S 44°52' E 173°03'2 1.0 1004.9 10.3
2017-May-18 20:00S 44°53' E 173°01'1 1.4 1005.1 10.2
2017-May-18 19:00S 44°53' E 172°59'0 0.4 1004.8 10.2
2017-May-18 18:00S 44°53' E 172°58'3 1.4 1004.8 10.3
2017-May-18 16:00S 44°56' E 172°56'0 0.0 1005.0 10.2
2017-May-18 15:00S 44°56' E 172°56'3 3.2 1005.5 10.2
2017-May-18 14:00S 44°58' E 172°53'0 0.0 1005.6 10.2
2017-May-18 13:00S 44°58' E 172°53'3 1.6 1005.1 10.2
2017-May-18 11:00S 45°00' E 172°50'2 1.7 1004.0 10.3
2017-May-18 10:00S 45°01' E 172°48'2 1.7 1003.4 10.3
2017-May-18 09:00S 45°02' E 172°46'2 1.7 1003.5 10.3
2017-May-18 08:00S 45°04' E 172°44'1 0.7 1003.5 10.3
2017-May-18 07:00S 45°03' E 172°44'0 0.0 999.5 10.3
2017-May-18 06:00S 45°03' E 172°44'0 0.4 1000.3 10.3
2017-May-18 05:00S 45°03' E 172°43'0 0.4 1001.5 10.3
2017-May-18 04:00S 45°03' E 172°43'0 0.0 1003.2 10.3
2017-May-18 03:00S 45°03' E 172°43'3 0.6 1004.2 10.4
2017-May-17 22:00S 45°06' E 172°41'1 0.6 1007.8 10.4
2017-May-17 21:00S 45°07' E 172°41'1 1.3 1007.5 10.5
2017-May-17 20:00S 45°08' E 172°41'1 0.7 1007.0 10.6
2017-May-17 19:00S 45°08' E 172°40'1 1.2 1006.3 10.8
2017-May-17 18:00S 45°10' E 172°40'1 0.6 1005.9 10.9
2017-May-17 17:00S 45°10' E 172°40'1 0.7 1005.4 10.9
2017-May-17 16:00S 45°11' E 172°41'1 1.4 1005.2 10.9
2017-May-17 15:00S 45°10' E 172°39'0 0.0 1005.5 10.9
2017-May-17 14:00S 45°10' E 172°39'0 0.0 1006.0 11.0
2017-May-17 13:00S 45°10' E 172°39'1 0.7 1006.7 11.0
2017-May-17 12:00S 45°11' E 172°38'0 0.0 1007.0 11.0
2017-May-17 11:00S 45°11' E 172°38'0 0.0 1007.3 11.0
2017-May-17 10:00S 45°11' E 172°38'1 0.7 1007.0 11.0
2017-May-17 08:00S 45°12' E 172°37'0 0.0 1006.4 11.0
2017-May-17 07:00S 45°12' E 172°37'1 0.6 1006.1 11.0
2017-May-17 06:00S 45°13' E 172°37'1 0.6 1006.1 11.0
2017-May-17 05:00S 45°13' E 172°37'0 0.4 1006.5 11.0
2017-May-17 04:00S 45°13' E 172°37'0 0.0 1006.9 11.0
2017-May-17 03:00S 45°13' E 172°37'2 0.4 1007.4 11.0
2017-May-16 23:00S 45°14' E 172°34'1 0.3 1010.8 11.0
2017-May-16 21:00S 45°14' E 172°34'1 0.7 1011.6 11.0
2017-May-16 20:00S 45°14' E 172°34'0 0.4 1012.5 11.0
2017-May-16 19:00S 45°14' E 172°33'0 0.0 1011.8 10.9
2017-May-16 17:00S 45°14' E 172°33'0 0.0 1013.5 10.9
2017-May-16 15:00S 45°14' E 172°33'1 0.6 1015.1 11.0
2017-May-16 14:00S 45°13' E 172°33'0 0.0 1015.9 11.0
2017-May-16 13:00S 45°13' E 172°33'1 0.4 1017.1 11.0
2017-May-16 11:00S 45°14' E 172°32'0 0.4 1018.2 11.0
2017-May-16 10:00S 45°14' E 172°33'0 0.4 1019.3 11.0
2017-May-16 09:00S 45°14' E 172°32'0 0.0 1019.8 10.9
2017-May-16 08:00S 45°14' E 172°32'1 0.7 1019.9 10.8
2017-May-16 07:00S 45°14' E 172°32'1 0.3 1020.1 10.8
2017-May-16 05:00S 45°15' E 172°32'2 1.7 1020.8 10.8
2017-May-16 04:00S 45°15' E 172°29'1 1.3 1021.2 10.7
2017-May-16 03:00S 45°15' E 172°31'1 0.3 1021.4 10.8
2017-May-15 22:00S 45°16' E 172°29'1 1.0 1023.7 10.8
2017-May-15 21:00S 45°16' E 172°28'0 0.0 1023.5 10.8
2017-May-15 20:00S 45°16' E 172°28'0 0.0 1023.2 10.8
2017-May-15 19:00S 45°16' E 172°28'1 1.0 1023.0 10.8
2017-May-15 18:00S 45°17' E 172°27'1 0.7 1023.1 10.8
2017-May-15 17:00S 45°17' E 172°26'0 0.0 1022.9 10.8
2017-May-15 15:00S 45°17' E 172°26'1 1.3 1022.6 10.8
2017-May-15 14:00S 45°17' E 172°25'1 0.7 1023.1 10.8
2017-May-15 13:00S 45°18' E 172°24'1 0.7 1023.5 10.8
2017-May-15 12:00S 45°19' E 172°23'0 0.0 1023.3 10.7
2017-May-15 11:00S 45°19' E 172°23'0 0.0 1023.4 10.7
2017-May-15 10:00S 45°19' E 172°23'0 0.0 1023.3 10.7
2017-May-15 09:00S 45°19' E 172°23'2 0.6 1023.1 10.6
2017-May-15 05:00S 45°20' E 172°22'2 1.8 1022.6 10.6
2017-May-15 04:00S 45°21' E 172°19'0 0.0 1022.9 10.7
2017-May-15 03:00S 45°21' E 172°19'2 0.5 1022.6 10.7
2017-May-14 23:00S 45°22' E 172°16'0 0.0 1024.6 10.5
2017-May-14 22:00S 45°22' E 172°16'1 0.7 1024.7 10.5
2017-May-14 20:00S 45°23' E 172°15'   1024.2 10.4

Dump ship's entire track history